sensor_id;sensor_type;location;lat;lon;timestamp;pressure;altitude;pressure_sealevel;temperature;humidity
77639;BME280;66802;52.574;14.398;2023-12-20T00:02:45;100955.69;;;5.86;100.00
77639;BME280;66802;52.574;14.398;2023-12-20T00:05:33;100946.09;;;5.83;100.00
77639;BME280;66802;52.574;14.398;2023-12-20T00:08:12;100962.69;;;5.89;100.00
77639;BME280;66802;52.574;14.398;2023-12-20T00:11:04;100962.34;;;5.93;100.00
77639;BME280;66802;52.574;14.398;2023-12-20T00:17:42;100952.47;;;5.94;100.00
77639;BME280;66802;52.574;14.398;2023-12-20T00:20:50;100949.06;;;5.92;100.00
77639;BME280;66802;52.574;14.398;2023-12-20T00:27:19;100941.50;;;5.97;100.00
77639;BME280;66802;52.574;14.398;2023-12-20T00:40:27;100930.06;;;5.95;100.00
77639;BME280;66802;52.574;14.398;2023-12-20T00:47:00;100938.81;;;5.97;100.00
77639;BME280;66802;52.574;14.398;2023-12-20T00:49:57;100926.28;;;5.97;100.00
77639;BME280;66802;52.574;14.398;2023-12-20T00:55:38;100919.47;;;5.93;100.00
77639;BME280;66802;52.574;14.398;2023-12-20T00:58:42;100922.50;;;6.00;100.00
77639;BME280;66802;52.574;14.398;2023-12-20T08:29:21;100830.00;;;4.92;100.00
77639;BME280;66802;52.574;14.398;2023-12-20T08:32:21;100824.66;;;4.92;100.00
77639;BME280;66802;52.574;14.398;2023-12-20T08:35:20;100834.38;;;4.93;100.00
77639;BME280;66802;52.574;14.398;2023-12-20T08:37:52;100831.94;;;4.90;100.00
77639;BME280;66802;52.574;14.398;2023-12-20T08:40:24;100831.22;;;4.99;100.00
77639;BME280;66802;52.574;14.398;2023-12-20T08:42:56;100811.91;;;4.96;100.00
77639;BME280;66802;52.574;14.398;2023-12-20T08:45:28;100807.16;;;4.99;100.00
77639;BME280;66802;52.574;14.398;2023-12-20T08:51:52;100820.19;;;5.04;100.00
77639;BME280;66802;52.574;14.398;2023-12-20T08:54:43;100813.88;;;5.05;100.00
77639;BME280;66802;52.574;14.398;2023-12-20T08:57:58;100820.94;;;5.06;100.00
77639;BME280;66802;52.574;14.398;2023-12-20T09:00:17;100807.66;;;5.04;100.00
77639;BME280;66802;52.574;14.398;2023-12-20T09:03:11;100811.19;;;5.05;100.00
77639;BME280;66802;52.574;14.398;2023-12-20T09:38:02;100794.63;;;5.57;97.88
77639;BME280;66802;52.574;14.398;2023-12-20T09:43:24;100785.09;;;5.53;97.44
77639;BME280;66802;52.574;14.398;2023-12-20T09:46:00;100783.16;;;5.55;97.69
77639;BME280;66802;52.574;14.398;2023-12-20T09:48:32;100793.75;;;5.57;96.76
77639;BME280;66802;52.574;14.398;2023-12-20T09:51:11;100770.63;;;5.56;97.90
77639;BME280;66802;52.574;14.398;2023-12-20T09:54:03;100782.31;;;5.66;98.10
77639;BME280;66802;52.574;14.398;2023-12-20T09:57:01;100769.78;;;5.77;98.80
77639;BME280;66802;52.574;14.398;2023-12-20T10:02:47;100779.66;;;5.88;95.36
77639;BME280;66802;52.574;14.398;2023-12-20T10:05:37;100769.31;;;5.83;94.68
77639;BME280;66802;52.574;14.398;2023-12-20T10:08:45;100765.50;;;5.75;95.78
77639;BME280;66802;52.574;14.398;2023-12-20T10:11:12;100761.84;;;5.76;95.33
77639;BME280;66802;52.574;14.398;2023-12-20T10:13:43;100753.25;;;5.72;95.26
77639;BME280;66802;52.574;14.398;2023-12-20T10:16:14;100754.31;;;5.70;95.62
77639;BME280;66802;52.574;14.398;2023-12-20T10:18:39;100752.63;;;5.69;95.50
77639;BME280;66802;52.574;14.398;2023-12-20T10:21:06;100760.41;;;5.72;96.17
77639;BME280;66802;52.574;14.398;2023-12-20T10:23:32;100744.59;;;5.69;95.57
77639;BME280;66802;52.574;14.398;2023-12-20T10:25:58;100757.59;;;5.73;95.38
77639;BME280;66802;52.574;14.398;2023-12-20T10:28:24;100752.38;;;5.72;95.56
77639;BME280;66802;52.574;14.398;2023-12-20T10:31:09;100745.31;;;5.71;95.53
77639;BME280;66802;52.574;14.398;2023-12-20T10:33:35;100732.41;;;5.65;96.02
77639;BME280;66802;52.574;14.398;2023-12-20T10:36:00;100734.72;;;5.69;96.58
77639;BME280;66802;52.574;14.398;2023-12-20T10:38:26;100721.56;;;5.66;96.73
77639;BME280;66802;52.574;14.398;2023-12-20T10:40:56;100727.56;;;5.70;97.09
77639;BME280;66802;52.574;14.398;2023-12-20T10:43:26;100716.59;;;5.73;96.97
77639;BME280;66802;52.574;14.398;2023-12-20T10:45:52;100709.88;;;5.78;95.64
77639;BME280;66802;52.574;14.398;2023-12-20T10:48:21;100713.06;;;5.83;94.89
77639;BME280;66802;52.574;14.398;2023-12-20T10:50:55;100715.84;;;5.93;93.89
77639;BME280;66802;52.574;14.398;2023-12-20T10:53:23;100695.53;;;5.91;93.92
77639;BME280;66802;52.574;14.398;2023-12-20T10:55:52;100697.47;;;5.89;94.89
77639;BME280;66802;52.574;14.398;2023-12-20T10:58:25;100688.66;;;5.86;93.24
77639;BME280;66802;52.574;14.398;2023-12-20T11:00:58;100693.28;;;5.84;94.17
77639;BME280;66802;52.574;14.398;2023-12-20T11:03:30;100692.34;;;5.74;95.16
77639;BME280;66802;52.574;14.398;2023-12-20T11:06:29;100685.03;;;5.76;95.76
77639;BME280;66802;52.574;14.398;2023-12-20T11:09:01;100684.19;;;5.76;96.22
77639;BME280;66802;52.574;14.398;2023-12-20T11:12:33;100673.34;;;5.77;95.82
77639;BME280;66802;52.574;14.398;2023-12-20T11:17:10;100650.34;;;5.75;95.07
77639;BME280;66802;52.574;14.398;2023-12-20T11:22:33;100651.44;;;5.83;94.30
77639;BME280;66802;52.574;14.398;2023-12-20T11:25:06;100662.28;;;5.93;94.36
77639;BME280;66802;52.574;14.398;2023-12-20T11:27:40;100647.50;;;5.87;94.62
77639;BME280;66802;52.574;14.398;2023-12-20T11:30:06;100639.88;;;5.83;94.25
77639;BME280;66802;52.574;14.398;2023-12-20T11:32:36;100628.19;;;5.84;94.68
77639;BME280;66802;52.574;14.398;2023-12-20T11:37:38;100625.09;;;6.00;94.56
77639;BME280;66802;52.574;14.398;2023-12-20T11:40:11;100619.22;;;6.06;94.79
77639;BME280;66802;52.574;14.398;2023-12-20T11:42:40;100620.91;;;6.07;93.91
77639;BME280;66802;52.574;14.398;2023-12-20T11:45:14;100623.16;;;6.02;93.94
77639;BME280;66802;52.574;14.398;2023-12-20T11:47:43;100620.47;;;6.02;92.91
77639;BME280;66802;52.574;14.398;2023-12-20T11:50:10;100619.63;;;6.01;94.05
77639;BME280;66802;52.574;14.398;2023-12-20T11:52:36;100594.31;;;5.94;94.15
77639;BME280;66802;52.574;14.398;2023-12-20T11:55:02;100601.97;;;5.99;94.93
77639;BME280;66802;52.574;14.398;2023-12-20T11:57:29;100596.59;;;5.99;94.81
77639;BME280;66802;52.574;14.398;2023-12-20T11:59:55;100584.19;;;5.98;94.39
77639;BME280;66802;52.574;14.398;2023-12-20T12:02:21;100595.63;;;6.00;93.23
77639;BME280;66802;52.574;14.398;2023-12-20T12:04:50;100582.22;;;6.00;93.88
77639;BME280;66802;52.574;14.398;2023-12-20T12:07:19;100572.00;;;6.05;94.12
77639;BME280;66802;52.574;14.398;2023-12-20T12:09:45;100569.63;;;6.11;93.97
77639;BME280;66802;52.574;14.398;2023-12-20T12:12:12;100557.09;;;6.12;92.30
77639;BME280;66802;52.574;14.398;2023-12-20T12:14:38;100539.31;;;6.11;93.22
77639;BME280;66802;52.574;14.398;2023-12-20T12:17:15;100541.84;;;6.12;93.95
77639;BME280;66802;52.574;14.398;2023-12-20T12:19:42;100534.06;;;6.09;93.38
77639;BME280;66802;52.574;14.398;2023-12-20T12:24:39;100527.28;;;6.05;93.84
77639;BME280;66802;52.574;14.398;2023-12-20T12:27:07;100508.66;;;6.04;93.42
77639;BME280;66802;52.574;14.398;2023-12-20T12:29:37;100505.00;;;6.05;93.30
77639;BME280;66802;52.574;14.398;2023-12-20T12:32:07;100501.72;;;6.01;93.33
77639;BME280;66802;52.574;14.398;2023-12-20T12:34:33;100494.53;;;6.02;93.38
77639;BME280;66802;52.574;14.398;2023-12-20T12:37:00;100488.34;;;6.01;95.09
77639;BME280;66802;52.574;14.398;2023-12-20T12:39:26;100478.34;;;6.03;94.37
77639;BME280;66802;52.574;14.398;2023-12-20T12:41:52;100485.97;;;6.08;94.92
77639;BME280;66802;52.574;14.398;2023-12-20T12:44:17;100478.91;;;6.07;93.63
77639;BME280;66802;52.574;14.398;2023-12-20T12:46:45;100470.88;;;6.07;93.25
77639;BME280;66802;52.574;14.398;2023-12-20T12:49:11;100464.94;;;6.03;93.13
77639;BME280;66802;52.574;14.398;2023-12-20T12:51:36;100459.13;;;5.98;93.10
77639;BME280;66802;52.574;14.398;2023-12-20T12:54:02;100455.59;;;5.98;93.35
77639;BME280;66802;52.574;14.398;2023-12-20T12:56:28;100453.44;;;5.92;93.98
77639;BME280;66802;52.574;14.398;2023-12-20T12:58:54;100452.59;;;5.91;94.15
77639;BME280;66802;52.574;14.398;2023-12-20T13:01:20;100444.81;;;5.88;94.00
77639;BME280;66802;52.574;14.398;2023-12-20T13:03:46;100433.47;;;5.84;93.48
77639;BME280;66802;52.574;14.398;2023-12-20T13:06:12;100447.88;;;5.83;95.59
77639;BME280;66802;52.574;14.398;2023-12-20T13:08:39;100427.94;;;5.76;96.38
77639;BME280;66802;52.574;14.398;2023-12-20T13:11:05;100435.53;;;5.71;97.04
77639;BME280;66802;52.574;14.398;2023-12-20T13:13:31;100431.28;;;5.69;96.65
77639;BME280;66802;52.574;14.398;2023-12-20T13:15:56;100418.00;;;5.67;97.02
77639;BME280;66802;52.574;14.398;2023-12-20T13:18:23;100423.38;;;5.67;97.47
77639;BME280;66802;52.574;14.398;2023-12-20T13:20:49;100433.69;;;5.72;97.36
77639;BME280;66802;52.574;14.398;2023-12-20T13:23:15;100424.81;;;5.71;97.51
77639;BME280;66802;52.574;14.398;2023-12-20T13:25:41;100436.88;;;5.66;97.40
77639;BME280;66802;52.574;14.398;2023-12-20T13:28:07;100449.41;;;5.65;97.04
77639;BME280;66802;52.574;14.398;2023-12-20T13:30:33;100456.03;;;5.61;97.38
77639;BME280;66802;52.574;14.398;2023-12-20T13:32:59;100452.63;;;5.59;98.68
77639;BME280;66802;52.574;14.398;2023-12-20T13:35:25;100437.41;;;5.60;98.48
77639;BME280;66802;52.574;14.398;2023-12-20T13:37:50;100441.91;;;5.59;98.00
77639;BME280;66802;52.574;14.398;2023-12-20T13:40:16;100425.00;;;5.59;98.34
77639;BME280;66802;52.574;14.398;2023-12-20T13:42:41;100432.06;;;5.60;98.01
77639;BME280;66802;52.574;14.398;2023-12-20T13:45:07;100430.09;;;5.62;98.28
77639;BME280;66802;52.574;14.398;2023-12-20T13:47:33;100426.72;;;5.60;96.96
77639;BME280;66802;52.574;14.398;2023-12-20T13:49:59;100433.88;;;5.59;98.05
77639;BME280;66802;52.574;14.398;2023-12-20T13:52:24;100439.97;;;5.61;98.67
77639;BME280;66802;52.574;14.398;2023-12-20T13:54:50;100443.88;;;5.57;99.42
77639;BME280;66802;52.574;14.398;2023-12-20T13:57:15;100443.88;;;5.57;100.00
77639;BME280;66802;52.574;14.398;2023-12-20T13:59:41;100469.41;;;5.61;100.00
77639;BME280;66802;52.574;14.398;2023-12-20T14:02:06;100522.97;;;5.61;100.00
77639;BME280;66802;52.574;14.398;2023-12-20T14:04:32;100536.50;;;5.17;96.40
77639;BME280;66802;52.574;14.398;2023-12-20T14:06:57;100539.69;;;4.66;94.31
77639;BME280;66802;52.574;14.398;2023-12-20T14:09:23;100522.41;;;4.25;96.20
77639;BME280;66802;52.574;14.398;2023-12-20T14:11:49;100508.06;;;4.15;96.60
77639;BME280;66802;52.574;14.398;2023-12-20T14:14:14;100472.63;;;4.13;97.69
77639;BME280;66802;52.574;14.398;2023-12-20T14:16:40;100469.34;;;4.10;97.28
77639;BME280;66802;52.574;14.398;2023-12-20T14:19:06;100444.19;;;4.12;97.62
77639;BME280;66802;52.574;14.398;2023-12-20T14:21:34;100456.59;;;4.13;97.94
77639;BME280;66802;52.574;14.398;2023-12-20T14:24:00;100467.28;;;4.13;97.58
77639;BME280;66802;52.574;14.398;2023-12-20T14:26:25;100462.78;;;4.14;97.31
77639;BME280;66802;52.574;14.398;2023-12-20T14:28:53;100467.88;;;4.17;98.72
77639;BME280;66802;52.574;14.398;2023-12-20T14:31:18;100477.50;;;4.19;98.96
77639;BME280;66802;52.574;14.398;2023-12-20T14:33:44;100476.63;;;4.19;99.94
77639;BME280;66802;52.574;14.398;2023-12-20T14:36:10;100478.09;;;4.23;100.00
77639;BME280;66802;52.574;14.398;2023-12-20T14:38:35;100474.81;;;4.30;100.00
77639;BME280;66802;52.574;14.398;2023-12-20T14:41:01;100477.97;;;4.35;100.00
77639;BME280;66802;52.574;14.398;2023-12-20T14:43:29;100490.13;;;4.39;100.00
77639;BME280;66802;52.574;14.398;2023-12-20T14:45:55;100488.31;;;4.40;99.17
77639;BME280;66802;52.574;14.398;2023-12-20T14:48:20;100490.00;;;4.41;98.39
77639;BME280;66802;52.574;14.398;2023-12-20T14:50:46;100487.94;;;4.45;97.57
77639;BME280;66802;52.574;14.398;2023-12-20T14:53:14;100493.03;;;4.48;97.22
77639;BME280;66802;52.574;14.398;2023-12-20T14:55:42;100499.13;;;4.50;96.68
77639;BME280;66802;52.574;14.398;2023-12-20T14:58:07;100493.41;;;4.43;97.47
77639;BME280;66802;52.574;14.398;2023-12-20T15:00:33;100504.13;;;4.43;96.79
77639;BME280;66802;52.574;14.398;2023-12-20T15:02:59;100508.22;;;4.36;97.27
77639;BME280;66802;52.574;14.398;2023-12-20T15:05:25;100506.88;;;4.30;97.54
77639;BME280;66802;52.574;14.398;2023-12-20T15:07:52;100527.16;;;4.33;97.49
77639;BME280;66802;52.574;14.398;2023-12-20T15:10:18;100524.97;;;4.27;97.71
77639;BME280;66802;52.574;14.398;2023-12-20T15:12:44;100522.41;;;4.25;97.57
77639;BME280;66802;52.574;14.398;2023-12-20T15:15:11;100525.19;;;4.24;97.35
77639;BME280;66802;52.574;14.398;2023-12-20T15:17:36;100532.38;;;4.23;97.54
77639;BME280;66802;52.574;14.398;2023-12-20T15:20:03;100545.59;;;4.25;97.38
77639;BME280;66802;52.574;14.398;2023-12-20T15:22:30;100545.38;;;4.28;97.35
77639;BME280;66802;52.574;14.398;2023-12-20T15:24:56;100549.25;;;4.24;98.54
77639;BME280;66802;52.574;14.398;2023-12-20T15:27:22;100543.66;;;4.27;98.61
77639;BME280;66802;52.574;14.398;2023-12-20T15:29:48;100550.22;;;4.34;98.78
77639;BME280;66802;52.574;14.398;2023-12-20T15:32:15;100554.50;;;4.36;99.19
77639;BME280;66802;52.574;14.398;2023-12-20T15:34:41;100588.03;;;4.40;99.33
77639;BME280;66802;52.574;14.398;2023-12-20T15:37:07;100607.59;;;4.41;99.73
77639;BME280;66802;52.574;14.398;2023-12-20T15:39:33;100600.22;;;4.10;96.33
77639;BME280;66802;52.574;14.398;2023-12-20T15:41:58;100568.53;;;3.81;95.57
77639;BME280;66802;52.574;14.398;2023-12-20T15:44:24;100584.78;;;3.67;96.70
77639;BME280;66802;52.574;14.398;2023-12-20T15:46:51;100574.03;;;3.56;98.33
77639;BME280;66802;52.574;14.398;2023-12-20T15:49:16;100573.63;;;3.49;99.04
77639;BME280;66802;52.574;14.398;2023-12-20T15:51:44;100567.09;;;3.53;99.60
77639;BME280;66802;52.574;14.398;2023-12-20T15:54:10;100563.47;;;3.54;100.00
77639;BME280;66802;52.574;14.398;2023-12-20T15:56:36;100563.97;;;3.59;100.00
77639;BME280;66802;52.574;14.398;2023-12-20T15:59:02;100561.72;;;3.66;100.00
77639;BME280;66802;52.574;14.398;2023-12-20T16:01:29;100559.63;;;3.70;100.00
77639;BME280;66802;52.574;14.398;2023-12-20T16:03:58;100561.34;;;3.71;100.00
77639;BME280;66802;52.574;14.398;2023-12-20T16:06:24;100556.00;;;3.71;100.00
77639;BME280;66802;52.574;14.398;2023-12-20T16:08:50;100564.75;;;3.73;100.00
77639;BME280;66802;52.574;14.398;2023-12-20T16:11:16;100556.00;;;3.71;100.00
77639;BME280;66802;52.574;14.398;2023-12-20T16:13:41;100564.66;;;3.74;100.00
77639;BME280;66802;52.574;14.398;2023-12-20T16:16:07;100569.88;;;3.76;100.00
77639;BME280;66802;52.574;14.398;2023-12-20T16:18:33;100576.44;;;3.83;99.62
77639;BME280;66802;52.574;14.398;2023-12-20T16:21:00;100574.28;;;3.88;99.65
77639;BME280;66802;52.574;14.398;2023-12-20T16:23:26;100569.81;;;3.88;99.14
77639;BME280;66802;52.574;14.398;2023-12-20T16:25:55;100561.91;;;3.87;98.45
77639;BME280;66802;52.574;14.398;2023-12-20T16:28:20;100565.78;;;3.83;98.44
77639;BME280;66802;52.574;14.398;2023-12-20T16:30:46;100562.47;;;3.79;98.62
77639;BME280;66802;52.574;14.398;2023-12-20T16:33:12;100558.34;;;3.75;98.64
77639;BME280;66802;52.574;14.398;2023-12-20T16:35:39;100573.50;;;3.75;98.50
77639;BME280;66802;52.574;14.398;2023-12-20T16:38:05;100576.41;;;3.72;98.68
77639;BME280;66802;52.574;14.398;2023-12-20T16:40:30;100578.31;;;3.70;99.16
77639;BME280;66802;52.574;14.398;2023-12-20T16:42:56;100581.84;;;3.70;99.86
77639;BME280;66802;52.574;14.398;2023-12-20T16:45:22;100579.06;;;3.72;99.88
77639;BME280;66802;52.574;14.398;2023-12-20T16:47:49;100587.94;;;3.72;100.00
77639;BME280;66802;52.574;14.398;2023-12-20T16:50:15;100585.63;;;3.79;100.00
77639;BME280;66802;52.574;14.398;2023-12-20T16:52:40;100591.50;;;3.84;99.96
77639;BME280;66802;52.574;14.398;2023-12-20T16:55:10;100587.97;;;3.83;99.67
77639;BME280;66802;52.574;14.398;2023-12-20T16:57:37;100584.22;;;3.86;99.36
77639;BME280;66802;52.574;14.398;2023-12-20T17:00:03;100586.69;;;3.89;99.14
77639;BME280;66802;52.574;14.398;2023-12-20T17:02:28;100577.94;;;3.87;99.48
77639;BME280;66802;52.574;14.398;2023-12-20T17:04:54;100579.53;;;3.89;98.71
77639;BME280;66802;52.574;14.398;2023-12-20T17:07:20;100583.66;;;3.93;98.75
77639;BME280;66802;52.574;14.398;2023-12-20T17:09:45;100571.38;;;3.91;98.68
77639;BME280;66802;52.574;14.398;2023-12-20T17:12:12;100574.03;;;3.91;98.97
77639;BME280;66802;52.574;14.398;2023-12-20T17:14:39;100577.06;;;3.86;99.11
77639;BME280;66802;52.574;14.398;2023-12-20T17:17:04;100581.09;;;3.92;98.27
77639;BME280;66802;52.574;14.398;2023-12-20T17:19:30;100585.84;;;3.88;98.51
77639;BME280;66802;52.574;14.398;2023-12-20T17:21:57;100590.91;;;3.91;98.51
77639;BME280;66802;52.574;14.398;2023-12-20T17:24:23;100581.44;;;3.87;98.39
77639;BME280;66802;52.574;14.398;2023-12-20T17:26:49;100576.72;;;3.91;97.84
77639;BME280;66802;52.574;14.398;2023-12-20T17:29:15;100584.63;;;3.92;97.34
77639;BME280;66802;52.574;14.398;2023-12-20T17:31:40;100595.06;;;3.95;97.73
77639;BME280;66802;52.574;14.398;2023-12-20T17:34:08;100588.34;;;3.90;98.09
77639;BME280;66802;52.574;14.398;2023-12-20T17:36:37;100603.31;;;3.92;97.58
77639;BME280;66802;52.574;14.398;2023-12-20T17:39:03;100598.81;;;3.93;97.58
77639;BME280;66802;52.574;14.398;2023-12-20T17:41:30;100593.22;;;3.85;97.61
77639;BME280;66802;52.574;14.398;2023-12-20T17:43:56;100597.38;;;3.89;97.19
77639;BME280;66802;52.574;14.398;2023-12-20T17:46:21;100601.00;;;3.88;96.67
77639;BME280;66802;52.574;14.398;2023-12-20T17:48:47;100603.56;;;3.89;96.44
77639;BME280;66802;52.574;14.398;2023-12-20T17:51:12;100595.88;;;3.85;96.42
77639;BME280;66802;52.574;14.398;2023-12-20T17:53:38;100609.22;;;3.85;96.68
77639;BME280;66802;52.574;14.398;2023-12-20T17:56:04;100604.63;;;3.87;97.29
77639;BME280;66802;52.574;14.398;2023-12-20T17:58:29;100598.44;;;3.86;97.46
77639;BME280;66802;52.574;14.398;2023-12-20T18:00:55;100605.59;;;3.86;97.31
77639;BME280;66802;52.574;14.398;2023-12-20T18:03:20;100610.34;;;3.93;96.30
77639;BME280;66802;52.574;14.398;2023-12-20T18:05:46;100609.38;;;3.94;96.42
77639;BME280;66802;52.574;14.398;2023-12-20T18:08:11;100614.94;;;3.91;97.14
77639;BME280;66802;52.574;14.398;2023-12-20T18:10:37;100613.97;;;3.92;96.58
77639;BME280;66802;52.574;14.398;2023-12-20T18:13:02;100618.38;;;3.93;96.97
77639;BME280;66802;52.574;14.398;2023-12-20T18:15:28;100612.69;;;3.98;96.30
77639;BME280;66802;52.574;14.398;2023-12-20T18:17:54;100613.66;;;3.97;96.71
77639;BME280;66802;52.574;14.398;2023-12-20T18:20:19;100618.03;;;3.98;96.39
77639;BME280;66802;52.574;14.398;2023-12-20T18:22:45;100618.25;;;3.95;96.90
77639;BME280;66802;52.574;14.398;2023-12-20T18:25:11;100620.19;;;3.93;97.07
77639;BME280;66802;52.574;14.398;2023-12-20T18:27:36;100619.00;;;3.97;96.92
77639;BME280;66802;52.574;14.398;2023-12-20T18:30:02;100611.72;;;3.99;96.83
77639;BME280;66802;52.574;14.398;2023-12-20T18:32:35;100613.53;;;3.98;97.07
77639;BME280;66802;52.574;14.398;2023-12-20T18:35:01;100617.78;;;4.01;96.85
77639;BME280;66802;52.574;14.398;2023-12-20T18:37:30;100617.91;;;3.99;97.06
77639;BME280;66802;52.574;14.398;2023-12-20T18:39:55;100616.31;;;3.97;97.16
77639;BME280;66802;52.574;14.398;2023-12-20T18:42:21;100622.53;;;3.97;97.67
77639;BME280;66802;52.574;14.398;2023-12-20T18:44:47;100635.41;;;4.03;97.75
77639;BME280;66802;52.574;14.398;2023-12-20T18:47:13;100629.69;;;3.97;97.51
77639;BME280;66802;52.574;14.398;2023-12-20T18:49:38;100636.63;;;3.99;97.81
77639;BME280;66802;52.574;14.398;2023-12-20T18:52:04;100632.63;;;4.05;97.49
77639;BME280;66802;52.574;14.398;2023-12-20T18:54:34;100632.28;;;4.10;97.90
77639;BME280;66802;52.574;14.398;2023-12-20T18:57:01;100617.22;;;4.09;97.57
77639;BME280;66802;52.574;14.398;2023-12-20T18:59:26;100624.13;;;4.11;96.93
77639;BME280;66802;52.574;14.398;2023-12-20T19:01:53;100614.44;;;4.10;96.54
77639;BME280;66802;52.574;14.398;2023-12-20T19:04:18;100600.09;;;4.11;96.76
77639;BME280;66802;52.574;14.398;2023-12-20T19:06:44;100607.75;;;4.16;96.16
77639;BME280;66802;52.574;14.398;2023-12-20T19:09:09;100594.19;;;4.19;96.42
77639;BME280;66802;52.574;14.398;2023-12-20T19:11:35;100596.13;;;4.17;96.55
77639;BME280;66802;52.574;14.398;2023-12-20T19:14:02;100598.66;;;4.18;95.87
77639;BME280;66802;52.574;14.398;2023-12-20T19:16:28;100587.63;;;4.23;96.12
77639;BME280;66802;52.574;14.398;2023-12-20T19:18:53;100578.63;;;4.24;95.33
77639;BME280;66802;52.574;14.398;2023-12-20T19:21:19;100585.13;;;4.32;95.08
77639;BME280;66802;52.574;14.398;2023-12-20T19:23:46;100584.25;;;4.32;95.43
77639;BME280;66802;52.574;14.398;2023-12-20T19:26:12;100572.22;;;4.37;94.77
77639;BME280;66802;52.574;14.398;2023-12-20T19:28:40;100568.72;;;4.37;94.96
77639;BME280;66802;52.574;14.398;2023-12-20T19:31:06;100572.00;;;4.40;94.64
77639;BME280;66802;52.574;14.398;2023-12-20T19:33:35;100571.25;;;4.38;94.87
77639;BME280;66802;52.574;14.398;2023-12-20T19:36:02;100567.97;;;4.35;95.20
77639;BME280;66802;52.574;14.398;2023-12-20T19:38:28;100569.34;;;4.40;94.74
77639;BME280;66802;52.574;14.398;2023-12-20T19:40:53;100569.44;;;4.39;94.36
77639;BME280;66802;52.574;14.398;2023-12-20T19:43:19;100567.75;;;4.38;94.81
77639;BME280;66802;52.574;14.398;2023-12-20T19:45:44;100565.06;;;4.38;94.60
77639;BME280;66802;52.574;14.398;2023-12-20T19:48:10;100570.91;;;4.43;95.31
77639;BME280;66802;52.574;14.398;2023-12-20T19:50:36;100573.81;;;4.40;95.10
77639;BME280;66802;52.574;14.398;2023-12-20T19:53:02;100564.72;;;4.43;94.82
77639;BME280;66802;52.574;14.398;2023-12-20T19:55:27;100565.56;;;4.43;94.56
77639;BME280;66802;52.574;14.398;2023-12-20T19:57:53;100564.47;;;4.46;94.67
77639;BME280;66802;52.574;14.398;2023-12-20T20:00:21;100566.66;;;4.40;94.15
77639;BME280;66802;52.574;14.398;2023-12-20T20:02:46;100564.72;;;4.43;94.48
77639;BME280;66802;52.574;14.398;2023-12-20T20:05:12;100558.75;;;4.39;94.86
77639;BME280;66802;52.574;14.398;2023-12-20T20:07:37;100560.47;;;4.40;94.75
77639;BME280;66802;52.574;14.398;2023-12-20T20:10:03;100538.22;;;4.39;94.53
77639;BME280;66802;52.574;14.398;2023-12-20T20:12:28;100549.53;;;4.43;93.97
77639;BME280;66802;52.574;14.398;2023-12-20T20:14:54;100545.16;;;4.42;94.30
77639;BME280;66802;52.574;14.398;2023-12-20T20:17:20;100540.28;;;4.36;94.51
77639;BME280;66802;52.574;14.398;2023-12-20T20:19:45;100555.22;;;4.38;94.51
77639;BME280;66802;52.574;14.398;2023-12-20T20:22:11;100550.84;;;4.37;94.74
77639;BME280;66802;52.574;14.398;2023-12-20T20:24:37;100543.56;;;4.39;95.12
77639;BME280;66802;52.574;14.398;2023-12-20T20:27:03;100546.38;;;4.38;95.55
77639;BME280;66802;52.574;14.398;2023-12-20T20:29:29;100544.88;;;4.34;94.90
77639;BME280;66802;52.574;14.398;2023-12-20T20:31:55;100543.03;;;4.23;95.62
77639;BME280;66802;52.574;14.398;2023-12-20T20:34:20;100528.25;;;4.19;95.75
77639;BME280;66802;52.574;14.398;2023-12-20T20:36:46;100526.88;;;4.14;95.60
77639;BME280;66802;52.574;14.398;2023-12-20T20:39:11;100527.25;;;4.09;95.91
77639;BME280;66802;52.574;14.398;2023-12-20T20:41:37;100534.66;;;4.06;96.33
77639;BME280;66802;52.574;14.398;2023-12-20T20:44:03;100529.66;;;4.01;96.44
77639;BME280;66802;52.574;14.398;2023-12-20T20:46:29;100527.22;;;3.98;97.20
77639;BME280;66802;52.574;14.398;2023-12-20T20:48:54;100534.97;;;4.01;97.11
77639;BME280;66802;52.574;14.398;2023-12-20T20:51:20;100526.38;;;3.97;97.29
77639;BME280;66802;52.574;14.398;2023-12-20T20:53:45;100525.03;;;4.03;97.65
77639;BME280;66802;52.574;14.398;2023-12-20T20:56:11;100531.13;;;4.05;97.57
77639;BME280;66802;52.574;14.398;2023-12-20T20:58:37;100532.13;;;4.15;97.48
77639;BME280;66802;52.574;14.398;2023-12-20T21:01:02;100518.53;;;4.18;97.40
77639;BME280;66802;52.574;14.398;2023-12-20T21:03:29;100516.34;;;4.23;96.33
77639;BME280;66802;52.574;14.398;2023-12-20T21:05:55;100514.63;;;4.22;95.75
77639;BME280;66802;52.574;14.398;2023-12-20T21:08:21;100520.97;;;4.21;96.08
77639;BME280;66802;52.574;14.398;2023-12-20T21:10:46;100511.38;;;4.19;96.53
77639;BME280;66802;52.574;14.398;2023-12-20T21:13:13;100511.25;;;4.20;95.91
77639;BME280;66802;52.574;14.398;2023-12-20T21:15:39;100506.75;;;4.21;95.79
77639;BME280;66802;52.574;14.398;2023-12-20T21:18:04;100506.38;;;4.25;95.12
77639;BME280;66802;52.574;14.398;2023-12-20T21:20:30;100495.81;;;4.24;94.25
77639;BME280;66802;52.574;14.398;2023-12-20T21:22:56;100486.25;;;4.21;94.46
77639;BME280;66802;52.574;14.398;2023-12-20T21:25:24;100490.47;;;4.24;94.25
77639;BME280;66802;52.574;14.398;2023-12-20T21:27:49;100488.19;;;4.19;93.89
77639;BME280;66802;52.574;14.398;2023-12-20T21:30:15;100472.38;;;4.16;93.89
77639;BME280;66802;52.574;14.398;2023-12-20T21:32:40;100473.97;;;4.19;94.47
77639;BME280;66802;52.574;14.398;2023-12-20T21:35:08;100474.94;;;4.18;94.34
77639;BME280;66802;52.574;14.398;2023-12-20T21:37:33;100466.06;;;4.17;94.17
77639;BME280;66802;52.574;14.398;2023-12-20T21:39:59;100476.03;;;4.15;95.07
77639;BME280;66802;52.574;14.398;2023-12-20T21:42:24;100479.66;;;4.14;94.59